sensor_id;sensor_type;location;lat;lon;timestamp;P1;durP1;ratioP1;P2;durP2;ratioP2
66559;SDS011;53413;49.878;8.142;2022-11-25T00:00:22;11.30;;;3.33;;
66559;SDS011;53413;49.878;8.142;2022-11-25T00:02:48;11.43;;;3.07;;
66559;SDS011;53413;49.878;8.142;2022-11-25T00:05:13;9.93;;;3.40;;
66559;SDS011;53413;49.878;8.142;2022-11-25T00:07:38;11.73;;;3.45;;
66559;SDS011;53413;49.878;8.142;2022-11-25T00:10:04;11.77;;;3.23;;
66559;SDS011;53413;49.878;8.142;2022-11-25T00:12:30;10.95;;;3.03;;
66559;SDS011;53413;49.878;8.142;2022-11-25T00:14:56;10.77;;;2.80;;
66559;SDS011;53413;49.878;8.142;2022-11-25T00:17:21;10.93;;;2.73;;
66559;SDS011;53413;49.878;8.142;2022-11-25T00:19:47;10.60;;;2.90;;
66559;SDS011;53413;49.878;8.142;2022-11-25T00:22:13;9.63;;;2.70;;
66559;SDS011;53413;49.878;8.142;2022-11-25T00:24:39;8.00;;;2.50;;
66559;SDS011;53413;49.878;8.142;2022-11-25T00:27:04;9.43;;;2.80;;
66559;SDS011;53413;49.878;8.142;2022-11-25T00:29:30;10.57;;;2.70;;
66559;SDS011;53413;49.878;8.142;2022-11-25T00:31:55;10.32;;;2.80;;
66559;SDS011;53413;49.878;8.142;2022-11-25T00:34:21;8.97;;;2.70;;
66559;SDS011;53413;49.878;8.142;2022-11-25T00:36:46;11.90;;;2.93;;
66559;SDS011;53413;49.878;8.142;2022-11-25T00:39:12;9.17;;;2.80;;
66559;SDS011;53413;49.878;8.142;2022-11-25T00:41:40;11.20;;;2.90;;
66559;SDS011;53413;49.878;8.142;2022-11-25T00:44:25;9.05;;;2.42;;
66559;SDS011;53413;49.878;8.142;2022-11-25T00:47:03;10.07;;;2.80;;
66559;SDS011;53413;49.878;8.142;2022-11-25T00:49:31;9.00;;;2.80;;
66559;SDS011;53413;49.878;8.142;2022-11-25T00:51:57;10.85;;;2.78;;
66559;SDS011;53413;49.878;8.142;2022-11-25T00:54:23;11.83;;;3.00;;
66559;SDS011;53413;49.878;8.142;2022-11-25T00:56:48;8.80;;;2.90;;
66559;SDS011;53413;49.878;8.142;2022-11-25T00:59:14;11.40;;;2.80;;
66559;SDS011;53413;49.878;8.142;2022-11-25T01:01:39;11.27;;;3.40;;
66559;SDS011;53413;49.878;8.142;2022-11-25T01:04:05;7.90;;;2.87;;
66559;SDS011;53413;49.878;8.142;2022-11-25T01:06:31;12.10;;;3.40;;
66559;SDS011;53413;49.878;8.142;2022-11-25T01:08:57;11.07;;;3.20;;
66559;SDS011;53413;49.878;8.142;2022-11-25T01:11:23;12.47;;;3.40;;
66559;SDS011;53413;49.878;8.142;2022-11-25T01:13:49;13.90;;;3.50;;
66559;SDS011;53413;49.878;8.142;2022-11-25T01:16:16;9.20;;;3.00;;
66559;SDS011;53413;49.878;8.142;2022-11-25T01:18:43;14.20;;;3.70;;
66559;SDS011;53413;49.878;8.142;2022-11-25T01:24:04;12.82;;;3.40;;
66559;SDS011;53413;49.878;8.142;2022-11-25T01:26:31;11.07;;;3.38;;
66559;SDS011;53413;49.878;8.142;2022-11-25T01:28:58;12.73;;;3.57;;
66559;SDS011;53413;49.878;8.142;2022-11-25T01:31:26;8.80;;;2.92;;
66559;SDS011;53413;49.878;8.142;2022-11-25T01:33:57;12.13;;;3.78;;
66559;SDS011;53413;49.878;8.142;2022-11-25T01:36:25;12.90;;;3.95;;
66559;SDS011;53413;49.878;8.142;2022-11-25T01:38:52;13.00;;;3.97;;
66559;SDS011;53413;49.878;8.142;2022-11-25T01:41:19;11.40;;;3.60;;
66559;SDS011;53413;49.878;8.142;2022-11-25T01:46:45;11.18;;;3.88;;
66559;SDS011;53413;49.878;8.142;2022-11-25T01:49:16;10.48;;;3.50;;
66559;SDS011;53413;49.878;8.142;2022-11-25T01:51:50;14.50;;;3.10;;
66559;SDS011;53413;49.878;8.142;2022-11-25T01:54:18;8.10;;;2.83;;
66559;SDS011;53413;49.878;8.142;2022-11-25T01:56:49;8.57;;;3.10;;
66559;SDS011;53413;49.878;8.142;2022-11-25T01:59:17;9.73;;;3.28;;
66559;SDS011;53413;49.878;8.142;2022-11-25T02:01:43;12.30;;;3.23;;
66559;SDS011;53413;49.878;8.142;2022-11-25T02:04:08;12.93;;;3.33;;
66559;SDS011;53413;49.878;8.142;2022-11-25T02:06:41;10.43;;;3.10;;
66559;SDS011;53413;49.878;8.142;2022-11-25T02:09:11;14.15;;;3.60;;
66559;SDS011;53413;49.878;8.142;2022-11-25T02:11:38;12.50;;;3.38;;
66559;SDS011;53413;49.878;8.142;2022-11-25T02:14:06;11.02;;;3.50;;
66559;SDS011;53413;49.878;8.142;2022-11-25T02:16:33;12.93;;;3.80;;
66559;SDS011;53413;49.878;8.142;2022-11-25T02:18:58;11.27;;;3.40;;
66559;SDS011;53413;49.878;8.142;2022-11-25T02:21:25;10.70;;;3.70;;
66559;SDS011;53413;49.878;8.142;2022-11-25T02:24:08;10.55;;;3.53;;
66559;SDS011;53413;49.878;8.142;2022-11-25T02:26:42;11.00;;;3.15;;
66559;SDS011;53413;49.878;8.142;2022-11-25T02:29:07;11.60;;;3.50;;
66559;SDS011;53413;49.878;8.142;2022-11-25T02:31:33;12.10;;;3.90;;
66559;SDS011;53413;49.878;8.142;2022-11-25T02:33:59;12.17;;;3.50;;
66559;SDS011;53413;49.878;8.142;2022-11-25T02:36:24;13.30;;;3.00;;
66559;SDS011;53413;49.878;8.142;2022-11-25T02:38:50;9.50;;;3.23;;
66559;SDS011;53413;49.878;8.142;2022-11-25T02:43:44;9.13;;;3.00;;
66559;SDS011;53413;49.878;8.142;2022-11-25T02:46:10;10.20;;;3.08;;
66559;SDS011;53413;49.878;8.142;2022-11-25T02:48:38;10.70;;;3.27;;
66559;SDS011;53413;49.878;8.142;2022-11-25T02:51:05;11.63;;;3.97;;
66559;SDS011;53413;49.878;8.142;2022-11-25T02:53:32;13.02;;;3.70;;
66559;SDS011;53413;49.878;8.142;2022-11-25T02:55:58;11.73;;;3.30;;
66559;SDS011;53413;49.878;8.142;2022-11-25T02:58:23;11.50;;;3.40;;
66559;SDS011;53413;49.878;8.142;2022-11-25T03:00:49;12.47;;;3.40;;
66559;SDS011;53413;49.878;8.142;2022-11-25T03:03:14;10.30;;;3.60;;
66559;SDS011;53413;49.878;8.142;2022-11-25T03:05:40;11.73;;;3.50;;
66559;SDS011;53413;49.878;8.142;2022-11-25T03:08:06;10.73;;;3.63;;
66559;SDS011;53413;49.878;8.142;2022-11-25T03:10:32;15.30;;;4.28;;
66559;SDS011;53413;49.878;8.142;2022-11-25T03:12:57;14.67;;;3.80;;
66559;SDS011;53413;49.878;8.142;2022-11-25T03:15:23;12.17;;;3.80;;
66559;SDS011;53413;49.878;8.142;2022-11-25T03:17:48;13.13;;;4.20;;
66559;SDS011;53413;49.878;8.142;2022-11-25T03:20:14;15.15;;;5.38;;
66559;SDS011;53413;49.878;8.142;2022-11-25T03:22:43;17.73;;;5.57;;
66559;SDS011;53413;49.878;8.142;2022-11-25T03:25:10;16.15;;;5.80;;
66559;SDS011;53413;49.878;8.142;2022-11-25T03:27:37;13.07;;;4.30;;
66559;SDS011;53413;49.878;8.142;2022-11-25T03:30:04;12.23;;;5.18;;
66559;SDS011;53413;49.878;8.142;2022-11-25T03:32:30;14.13;;;5.88;;
66559;SDS011;53413;49.878;8.142;2022-11-25T03:34:56;14.30;;;5.17;;
66559;SDS011;53413;49.878;8.142;2022-11-25T03:37:21;16.53;;;6.23;;
66559;SDS011;53413;49.878;8.142;2022-11-25T03:39:47;18.92;;;6.22;;
66559;SDS011;53413;49.878;8.142;2022-11-25T03:42:12;11.70;;;4.20;;
66559;SDS011;53413;49.878;8.142;2022-11-25T03:44:38;13.37;;;4.53;;
66559;SDS011;53413;49.878;8.142;2022-11-25T03:47:03;14.50;;;5.45;;
66559;SDS011;53413;49.878;8.142;2022-11-25T03:49:30;16.00;;;5.18;;
66559;SDS011;53413;49.878;8.142;2022-11-25T03:51:55;18.50;;;5.40;;
66559;SDS011;53413;49.878;8.142;2022-11-25T03:54:21;14.95;;;5.93;;
66559;SDS011;53413;49.878;8.142;2022-11-25T03:56:46;15.77;;;5.90;;
66559;SDS011;53413;49.878;8.142;2022-11-25T03:59:11;16.30;;;6.23;;
66559;SDS011;53413;49.878;8.142;2022-11-25T04:01:37;16.53;;;7.03;;
66559;SDS011;53413;49.878;8.142;2022-11-25T04:04:02;13.07;;;5.90;;
66559;SDS011;53413;49.878;8.142;2022-11-25T04:06:28;16.30;;;6.30;;
66559;SDS011;53413;49.878;8.142;2022-11-25T04:08:53;14.68;;;5.97;;
66559;SDS011;53413;49.878;8.142;2022-11-25T04:11:19;17.52;;;6.15;;
66559;SDS011;53413;49.878;8.142;2022-11-25T04:13:45;18.13;;;6.53;;
66559;SDS011;53413;49.878;8.142;2022-11-25T04:16:20;16.87;;;6.30;;
66559;SDS011;53413;49.878;8.142;2022-11-25T04:18:48;16.75;;;6.15;;
66559;SDS011;53413;49.878;8.142;2022-11-25T04:21:14;16.17;;;6.37;;
66559;SDS011;53413;49.878;8.142;2022-11-25T04:23:39;17.27;;;6.93;;
66559;SDS011;53413;49.878;8.142;2022-11-25T04:26:04;16.17;;;6.60;;
66559;SDS011;53413;49.878;8.142;2022-11-25T04:28:30;16.20;;;6.90;;
66559;SDS011;53413;49.878;8.142;2022-11-25T04:30:55;17.00;;;7.37;;
66559;SDS011;53413;49.878;8.142;2022-11-25T04:33:20;21.17;;;7.80;;
66559;SDS011;53413;49.878;8.142;2022-11-25T04:35:46;20.45;;;8.05;;
66559;SDS011;53413;49.878;8.142;2022-11-25T04:38:11;23.30;;;8.23;;
66559;SDS011;53413;49.878;8.142;2022-11-25T04:40:37;22.17;;;8.53;;
66559;SDS011;53413;49.878;8.142;2022-11-25T04:43:02;22.07;;;8.57;;
66559;SDS011;53413;49.878;8.142;2022-11-25T04:45:27;20.33;;;8.40;;
66559;SDS011;53413;49.878;8.142;2022-11-25T04:47:53;21.80;;;7.90;;
66559;SDS011;53413;49.878;8.142;2022-11-25T04:50:19;20.33;;;8.80;;
66559;SDS011;53413;49.878;8.142;2022-11-25T04:52:46;21.90;;;8.23;;
66559;SDS011;53413;49.878;8.142;2022-11-25T04:55:12;19.60;;;8.10;;
66559;SDS011;53413;49.878;8.142;2022-11-25T04:57:37;21.00;;;8.23;;
66559;SDS011;53413;49.878;8.142;2022-11-25T05:00:03;20.35;;;7.78;;
66559;SDS011;53413;49.878;8.142;2022-11-25T05:02:29;20.23;;;7.97;;
66559;SDS011;53413;49.878;8.142;2022-11-25T05:04:55;21.63;;;8.23;;
66559;SDS011;53413;49.878;8.142;2022-11-25T05:07:21;20.15;;;8.30;;
66559;SDS011;53413;49.878;8.142;2022-11-25T05:09:48;22.70;;;8.57;;
66559;SDS011;53413;49.878;8.142;2022-11-25T05:12:14;23.00;;;8.20;;
66559;SDS011;53413;49.878;8.142;2022-11-25T05:14:42;24.15;;;8.02;;
66559;SDS011;53413;49.878;8.142;2022-11-25T05:17:15;21.13;;;8.30;;
66559;SDS011;53413;49.878;8.142;2022-11-25T05:19:42;21.03;;;8.67;;
66559;SDS011;53413;49.878;8.142;2022-11-25T05:22:11;22.05;;;8.60;;
66559;SDS011;53413;49.878;8.142;2022-11-25T05:24:38;17.58;;;7.95;;
66559;SDS011;53413;49.878;8.142;2022-11-25T05:27:04;21.03;;;8.60;;
66559;SDS011;53413;49.878;8.142;2022-11-25T05:29:29;20.83;;;8.30;;
66559;SDS011;53413;49.878;8.142;2022-11-25T05:31:55;21.15;;;8.73;;
66559;SDS011;53413;49.878;8.142;2022-11-25T05:34:20;20.70;;;8.30;;
66559;SDS011;53413;49.878;8.142;2022-11-25T05:36:45;20.50;;;8.33;;
66559;SDS011;53413;49.878;8.142;2022-11-25T05:39:11;20.17;;;8.30;;
66559;SDS011;53413;49.878;8.142;2022-11-25T05:41:36;18.60;;;7.40;;
66559;SDS011;53413;49.878;8.142;2022-11-25T05:44:01;18.77;;;7.90;;
66559;SDS011;53413;49.878;8.142;2022-11-25T05:46:27;18.70;;;7.93;;
66559;SDS011;53413;49.878;8.142;2022-11-25T05:48:53;19.70;;;8.57;;
66559;SDS011;53413;49.878;8.142;2022-11-25T05:51:19;19.42;;;7.40;;
66559;SDS011;53413;49.878;8.142;2022-11-25T05:53:46;20.70;;;7.18;;
66559;SDS011;53413;49.878;8.142;2022-11-25T05:56:11;18.67;;;7.37;;
66559;SDS011;53413;49.878;8.142;2022-11-25T05:58:36;16.77;;;7.03;;
66559;SDS011;53413;49.878;8.142;2022-11-25T06:01:05;20.47;;;7.63;;
66559;SDS011;53413;49.878;8.142;2022-11-25T06:03:32;17.70;;;7.25;;
66559;SDS011;53413;49.878;8.142;2022-11-25T06:05:58;16.53;;;7.40;;
66559;SDS011;53413;49.878;8.142;2022-11-25T06:08:24;18.05;;;7.50;;
66559;SDS011;53413;49.878;8.142;2022-11-25T06:10:51;19.95;;;7.68;;
66559;SDS011;53413;49.878;8.142;2022-11-25T06:13:17;20.37;;;8.37;;
66559;SDS011;53413;49.878;8.142;2022-11-25T06:15:43;19.77;;;8.35;;
66559;SDS011;53413;49.878;8.142;2022-11-25T06:18:10;17.90;;;7.70;;
66559;SDS011;53413;49.878;8.142;2022-11-25T06:20:36;22.43;;;7.60;;
66559;SDS011;53413;49.878;8.142;2022-11-25T06:23:02;16.25;;;7.18;;
66559;SDS011;53413;49.878;8.142;2022-11-25T06:25:27;17.67;;;6.88;;
66559;SDS011;53413;49.878;8.142;2022-11-25T06:27:54;17.10;;;7.40;;
66559;SDS011;53413;49.878;8.142;2022-11-25T06:30:19;19.92;;;7.63;;
66559;SDS011;53413;49.878;8.142;2022-11-25T06:32:45;17.30;;;7.00;;
66559;SDS011;53413;49.878;8.142;2022-11-25T06:35:10;20.47;;;8.10;;
66559;SDS011;53413;49.878;8.142;2022-11-25T06:37:36;18.50;;;7.43;;
66559;SDS011;53413;49.878;8.142;2022-11-25T06:40:02;17.60;;;7.57;;
66559;SDS011;53413;49.878;8.142;2022-11-25T06:42:28;17.58;;;7.55;;
66559;SDS011;53413;49.878;8.142;2022-11-25T06:44:53;18.67;;;7.90;;
66559;SDS011;53413;49.878;8.142;2022-11-25T06:47:19;17.37;;;7.37;;
66559;SDS011;53413;49.878;8.142;2022-11-25T06:49:44;17.00;;;7.50;;
66559;SDS011;53413;49.878;8.142;2022-11-25T06:52:09;18.13;;;7.78;;
66559;SDS011;53413;49.878;8.142;2022-11-25T06:54:35;20.02;;;8.18;;
66559;SDS011;53413;49.878;8.142;2022-11-25T06:57:05;19.37;;;7.83;;
66559;SDS011;53413;49.878;8.142;2022-11-25T06:59:33;20.75;;;7.82;;
66559;SDS011;53413;49.878;8.142;2022-11-25T07:01:58;16.35;;;7.47;;
66559;SDS011;53413;49.878;8.142;2022-11-25T07:04:24;19.77;;;8.20;;
66559;SDS011;53413;49.878;8.142;2022-11-25T07:06:49;22.57;;;10.20;;
66559;SDS011;53413;49.878;8.142;2022-11-25T07:09:15;19.77;;;8.10;;
66559;SDS011;53413;49.878;8.142;2022-11-25T07:11:40;21.55;;;8.05;;
66559;SDS011;53413;49.878;8.142;2022-11-25T07:14:10;18.13;;;7.60;;
66559;SDS011;53413;49.878;8.142;2022-11-25T07:16:38;18.17;;;7.40;;
66559;SDS011;53413;49.878;8.142;2022-11-25T07:19:05;20.02;;;7.88;;
66559;SDS011;53413;49.878;8.142;2022-11-25T07:21:31;17.43;;;7.20;;
66559;SDS011;53413;49.878;8.142;2022-11-25T07:23:58;17.58;;;7.13;;
66559;SDS011;53413;49.878;8.142;2022-11-25T07:26:26;20.52;;;7.82;;
66559;SDS011;53413;49.878;8.142;2022-11-25T07:28:53;17.63;;;7.50;;
66559;SDS011;53413;49.878;8.142;2022-11-25T07:31:23;18.17;;;7.55;;
66559;SDS011;53413;49.878;8.142;2022-11-25T07:33:51;17.23;;;7.60;;
66559;SDS011;53413;49.878;8.142;2022-11-25T07:36:18;19.17;;;8.15;;
66559;SDS011;53413;49.878;8.142;2022-11-25T07:38:43;20.48;;;8.75;;
66559;SDS011;53413;49.878;8.142;2022-11-25T07:41:10;21.13;;;10.13;;
66559;SDS011;53413;49.878;8.142;2022-11-25T07:43:43;21.20;;;9.53;;
66559;SDS011;53413;49.878;8.142;2022-11-25T07:46:20;19.95;;;8.90;;
66559;SDS011;53413;49.878;8.142;2022-11-25T07:48:46;22.80;;;9.30;;
66559;SDS011;53413;49.878;8.142;2022-11-25T07:51:22;20.40;;;9.40;;
66559;SDS011;53413;49.878;8.142;2022-11-25T07:53:52;19.70;;;8.48;;
66559;SDS011;53413;49.878;8.142;2022-11-25T07:56:19;20.00;;;8.17;;
66559;SDS011;53413;49.878;8.142;2022-11-25T07:58:45;17.75;;;8.18;;
66559;SDS011;53413;49.878;8.142;2022-11-25T08:01:11;20.35;;;7.10;;
66559;SDS011;53413;49.878;8.142;2022-11-25T08:03:38;19.27;;;7.10;;
66559;SDS011;53413;49.878;8.142;2022-11-25T08:06:06;18.02;;;7.75;;
66559;SDS011;53413;49.878;8.142;2022-11-25T08:08:34;17.02;;;7.60;;
66559;SDS011;53413;49.878;8.142;2022-11-25T08:11:00;21.13;;;8.68;;
66559;SDS011;53413;49.878;8.142;2022-11-25T08:13:29;19.58;;;7.40;;
66559;SDS011;53413;49.878;8.142;2022-11-25T08:15:57;18.57;;;7.70;;
66559;SDS011;53413;49.878;8.142;2022-11-25T08:18:23;21.80;;;8.10;;
66559;SDS011;53413;49.878;8.142;2022-11-25T08:20:48;20.13;;;7.70;;
66559;SDS011;53413;49.878;8.142;2022-11-25T08:23:13;18.73;;;7.30;;
66559;SDS011;53413;49.878;8.142;2022-11-25T08:25:42;18.65;;;7.72;;
66559;SDS011;53413;49.878;8.142;2022-11-25T08:28:08;18.57;;;7.53;;
66559;SDS011;53413;49.878;8.142;2022-11-25T08:30:33;19.25;;;7.47;;
66559;SDS011;53413;49.878;8.142;2022-11-25T08:32:59;17.92;;;7.90;;
66559;SDS011;53413;49.878;8.142;2022-11-25T08:35:25;20.13;;;7.70;;
66559;SDS011;53413;49.878;8.142;2022-11-25T08:37:50;18.37;;;7.57;;
66559;SDS011;53413;49.878;8.142;2022-11-25T08:40:16;18.10;;;7.50;;
66559;SDS011;53413;49.878;8.142;2022-11-25T08:42:41;16.87;;;7.63;;
66559;SDS011;53413;49.878;8.142;2022-11-25T08:45:07;17.30;;;6.93;;
66559;SDS011;53413;49.878;8.142;2022-11-25T08:47:33;17.10;;;7.22;;
66559;SDS011;53413;49.878;8.142;2022-11-25T08:49:59;16.50;;;7.70;;
66559;SDS011;53413;49.878;8.142;2022-11-25T08:52:24;16.48;;;7.15;;
66559;SDS011;53413;49.878;8.142;2022-11-25T08:54:52;15.10;;;6.70;;
66559;SDS011;53413;49.878;8.142;2022-11-25T08:57:18;21.03;;;7.57;;
66559;SDS011;53413;49.878;8.142;2022-11-25T08:59:43;17.17;;;7.30;;
66559;SDS011;53413;49.878;8.142;2022-11-25T09:02:10;14.83;;;6.53;;
66559;SDS011;53413;49.878;8.142;2022-11-25T09:04:38;16.98;;;6.65;;
66559;SDS011;53413;49.878;8.142;2022-11-25T09:07:04;17.70;;;6.77;;
66559;SDS011;53413;49.878;8.142;2022-11-25T09:09:29;16.93;;;6.53;;
66559;SDS011;53413;49.878;8.142;2022-11-25T09:11:54;15.00;;;6.32;;
66559;SDS011;53413;49.878;8.142;2022-11-25T09:14:20;15.07;;;6.53;;
66559;SDS011;53413;49.878;8.142;2022-11-25T09:16:46;14.57;;;6.23;;
66559;SDS011;53413;49.878;8.142;2022-11-25T09:19:11;15.33;;;6.30;;
66559;SDS011;53413;49.878;8.142;2022-11-25T09:21:36;14.13;;;5.53;;
66559;SDS011;53413;49.878;8.142;2022-11-25T09:24:02;14.07;;;5.28;;
66559;SDS011;53413;49.878;8.142;2022-11-25T09:26:28;11.93;;;5.10;;
66559;SDS011;53413;49.878;8.142;2022-11-25T09:28:55;14.88;;;5.70;;
66559;SDS011;53413;49.878;8.142;2022-11-25T09:31:21;12.90;;;5.40;;
66559;SDS011;53413;49.878;8.142;2022-11-25T09:33:47;13.88;;;5.40;;
66559;SDS011;53413;49.878;8.142;2022-11-25T09:36:14;14.82;;;6.18;;
66559;SDS011;53413;49.878;8.142;2022-11-25T09:38:41;13.27;;;5.55;;
66559;SDS011;53413;49.878;8.142;2022-11-25T09:50:34;15.90;;;6.37;;
66559;SDS011;53413;49.878;8.142;2022-11-25T09:55:49;17.95;;;6.47;;
66559;SDS011;53413;49.878;8.142;2022-11-25T09:58:27;17.25;;;6.45;;
66559;SDS011;53413;49.878;8.142;2022-11-25T10:00:58;16.25;;;6.28;;
66559;SDS011;53413;49.878;8.142;2022-11-25T10:08:42;18.88;;;8.10;;
66559;SDS011;53413;49.878;8.142;2022-11-25T10:21:58;18.67;;;8.40;;
66559;SDS011;53413;49.878;8.142;2022-11-25T10:24:34;16.05;;;7.72;;
66559;SDS011;53413;49.878;8.142;2022-11-25T10:27:00;18.27;;;8.90;;
66559;SDS011;53413;49.878;8.142;2022-11-25T10:29:33;15.07;;;6.55;;
66559;SDS011;53413;49.878;8.142;2022-11-25T10:34:48;13.90;;;6.00;;
66559;SDS011;53413;49.878;8.142;2022-11-25T10:37:32;13.90;;;5.80;;
66559;SDS011;53413;49.878;8.142;2022-11-25T10:40:03;12.88;;;5.00;;
66559;SDS011;53413;49.878;8.142;2022-11-25T10:42:29;15.77;;;5.30;;
66559;SDS011;53413;49.878;8.142;2022-11-25T10:44:56;15.10;;;5.97;;
66559;SDS011;53413;49.878;8.142;2022-11-25T10:53:02;13.98;;;5.10;;
66559;SDS011;53413;49.878;8.142;2022-11-25T10:55:46;12.10;;;4.80;;
66559;SDS011;53413;49.878;8.142;2022-11-25T11:03:43;12.97;;;4.63;;
66559;SDS011;53413;49.878;8.142;2022-11-25T11:06:27;10.90;;;3.88;;
66559;SDS011;53413;49.878;8.142;2022-11-25T11:08:55;11.75;;;4.00;;
66559;SDS011;53413;49.878;8.142;2022-11-25T11:11:21;12.63;;;4.33;;
66559;SDS011;53413;49.878;8.142;2022-11-25T11:13:48;10.45;;;4.07;;
66559;SDS011;53413;49.878;8.142;2022-11-25T11:18:49;12.10;;;4.30;;
66559;SDS011;53413;49.878;8.142;2022-11-25T11:21:34;18.10;;;8.60;;
66559;SDS011;53413;49.878;8.142;2022-11-25T11:24:02;14.77;;;5.45;;
66559;SDS011;53413;49.878;8.142;2022-11-25T11:26:45;12.38;;;5.40;;
66559;SDS011;53413;49.878;8.142;2022-11-25T11:29:14;10.17;;;4.60;;
66559;SDS011;53413;49.878;8.142;2022-11-25T11:31:44;13.88;;;6.55;;
66559;SDS011;53413;49.878;8.142;2022-11-25T11:34:25;17.13;;;7.53;;
66559;SDS011;53413;49.878;8.142;2022-11-25T11:50:45;11.77;;;5.10;;
66559;SDS011;53413;49.878;8.142;2022-11-25T11:53:36;14.50;;;5.55;;
66559;SDS011;53413;49.878;8.142;2022-11-25T11:56:06;14.45;;;6.20;;
66559;SDS011;53413;49.878;8.142;2022-11-25T12:01:59;10.63;;;3.80;;
66559;SDS011;53413;49.878;8.142;2022-11-25T12:04:43;10.37;;;3.70;;
66559;SDS011;53413;49.878;8.142;2022-11-25T12:09:54;10.68;;;3.70;;
66559;SDS011;53413;49.878;8.142;2022-11-25T12:12:28;10.52;;;3.90;;
66559;SDS011;53413;49.878;8.142;2022-11-25T12:15:04;10.35;;;4.05;;
66559;SDS011;53413;49.878;8.142;2022-11-25T12:17:42;12.33;;;5.30;;
66559;SDS011;53413;49.878;8.142;2022-11-25T12:25:26;11.43;;;4.35;;
66559;SDS011;53413;49.878;8.142;2022-11-25T12:28:00;14.27;;;5.15;;
66559;SDS011;53413;49.878;8.142;2022-11-25T12:30:44;11.33;;;3.83;;
66559;SDS011;53413;49.878;8.142;2022-11-25T12:33:45;11.00;;;4.70;;
66559;SDS011;53413;49.878;8.142;2022-11-25T12:36:24;15.77;;;8.38;;
66559;SDS011;53413;49.878;8.142;2022-11-25T12:38:56;14.18;;;5.47;;
66559;SDS011;53413;49.878;8.142;2022-11-25T12:46:40;11.23;;;4.97;;
66559;SDS011;53413;49.878;8.142;2022-11-25T12:49:13;13.27;;;4.45;;
66559;SDS011;53413;49.878;8.142;2022-11-25T12:54:34;12.95;;;4.30;;
66559;SDS011;53413;49.878;8.142;2022-11-25T12:59:50;11.57;;;4.05;;
66559;SDS011;53413;49.878;8.142;2022-11-25T13:02:34;10.02;;;3.70;;
66559;SDS011;53413;49.878;8.142;2022-11-25T13:10:39;11.03;;;5.07;;
66559;SDS011;53413;49.878;8.142;2022-11-25T13:13:12;11.80;;;4.85;;
66559;SDS011;53413;49.878;8.142;2022-11-25T13:15:47;14.02;;;5.57;;
66559;SDS011;53413;49.878;8.142;2022-11-25T13:18:16;12.73;;;4.70;;
66559;SDS011;53413;49.878;8.142;2022-11-25T13:20:53;13.15;;;4.80;;
66559;SDS011;53413;49.878;8.142;2022-11-25T13:25:48;11.77;;;4.68;;
66559;SDS011;53413;49.878;8.142;2022-11-25T13:31:18;9.05;;;4.20;;
66559;SDS011;53413;49.878;8.142;2022-11-25T13:36:22;11.93;;;4.80;;
66559;SDS011;53413;49.878;8.142;2022-11-25T13:44:22;14.05;;;4.10;;
66559;SDS011;53413;49.878;8.142;2022-11-25T13:46:38;10.90;;;3.70;;
66559;SDS011;53413;49.878;8.142;2022-11-25T13:49:20;11.85;;;3.90;;
66559;SDS011;53413;49.878;8.142;2022-11-25T13:51:52;10.77;;;3.75;;
66559;SDS011;53413;49.878;8.142;2022-11-25T13:54:23;8.52;;;2.88;;
66559;SDS011;53413;49.878;8.142;2022-11-25T13:57:16;8.07;;;2.55;;
66559;SDS011;53413;49.878;8.142;2022-11-25T13:59:49;7.30;;;2.50;;
66559;SDS011;53413;49.878;8.142;2022-11-25T14:08:18;12.02;;;2.50;;
66559;SDS011;53413;49.878;8.142;2022-11-25T14:21:25;8.77;;;2.92;;
66559;SDS011;53413;49.878;8.142;2022-11-25T14:24:16;8.38;;;2.25;;
66559;SDS011;53413;49.878;8.142;2022-11-25T14:26:45;8.68;;;2.65;;
66559;SDS011;53413;49.878;8.142;2022-11-25T14:31:45;7.40;;;2.47;;
66559;SDS011;53413;49.878;8.142;2022-11-25T14:34:22;7.18;;;2.47;;
66559;SDS011;53413;49.878;8.142;2022-11-25T14:36:53;8.18;;;2.70;;
66559;SDS011;53413;49.878;8.142;2022-11-25T14:42:05;7.77;;;3.17;;
66559;SDS011;53413;49.878;8.142;2022-11-25T14:44:43;7.75;;;2.50;;
66559;SDS011;53413;49.878;8.142;2022-11-25T14:47:23;9.95;;;2.60;;
66559;SDS011;53413;49.878;8.142;2022-11-25T14:49:51;8.75;;;2.60;;
66559;SDS011;53413;49.878;8.142;2022-11-25T14:52:22;8.73;;;2.30;;
66559;SDS011;53413;49.878;8.142;2022-11-25T14:54:51;8.00;;;2.40;;
66559;SDS011;53413;49.878;8.142;2022-11-25T14:57:23;7.68;;;2.08;;
66559;SDS011;53413;49.878;8.142;2022-11-25T14:59:50;8.63;;;2.10;;
66559;SDS011;53413;49.878;8.142;2022-11-25T15:02:28;8.23;;;1.95;;
66559;SDS011;53413;49.878;8.142;2022-11-25T15:07:52;8.30;;;2.00;;
66559;SDS011;53413;49.878;8.142;2022-11-25T15:10:27;8.45;;;1.88;;
66559;SDS011;53413;49.878;8.142;2022-11-25T15:12:54;9.07;;;2.10;;
66559;SDS011;53413;49.878;8.142;2022-11-25T15:15:20;7.57;;;1.80;;
66559;SDS011;53413;49.878;8.142;2022-11-25T15:17:45;7.63;;;1.80;;
66559;SDS011;53413;49.878;8.142;2022-11-25T15:20:12;7.65;;;2.05;;
66559;SDS011;53413;49.878;8.142;2022-11-25T15:22:50;9.10;;;2.03;;
66559;SDS011;53413;49.878;8.142;2022-11-25T15:25:17;5.63;;;1.83;;
66559;SDS011;53413;49.878;8.142;2022-11-25T15:27:44;10.23;;;2.57;;
66559;SDS011;53413;49.878;8.142;2022-11-25T15:30:16;10.23;;;2.70;;
66559;SDS011;53413;49.878;8.142;2022-11-25T15:32:45;9.55;;;2.45;;
66559;SDS011;53413;49.878;8.142;2022-11-25T15:35:16;10.70;;;2.50;;
66559;SDS011;53413;49.878;8.142;2022-11-25T15:37:45;8.27;;;2.37;;
66559;SDS011;53413;49.878;8.142;2022-11-25T15:40:33;7.93;;;1.90;;
66559;SDS011;53413;49.878;8.142;2022-11-25T15:43:01;8.13;;;2.00;;
66559;SDS011;53413;49.878;8.142;2022-11-25T15:45:31;9.23;;;2.13;;
66559;SDS011;53413;49.878;8.142;2022-11-25T15:48:24;8.63;;;2.17;;
66559;SDS011;53413;49.878;8.142;2022-11-25T15:50:56;12.90;;;2.13;;
66559;SDS011;53413;49.878;8.142;2022-11-25T15:53:27;7.68;;;1.95;;
66559;SDS011;53413;49.878;8.142;2022-11-25T15:55:53;9.15;;;2.35;;
66559;SDS011;53413;49.878;8.142;2022-11-25T15:58:25;8.07;;;1.97;;
66559;SDS011;53413;49.878;8.142;2022-11-25T16:03:41;10.77;;;3.00;;
66559;SDS011;53413;49.878;8.142;2022-11-25T16:06:23;14.02;;;2.60;;
66559;SDS011;53413;49.878;8.142;2022-11-25T16:08:59;15.82;;;4.55;;
66559;SDS011;53413;49.878;8.142;2022-11-25T16:11:26;11.25;;;4.20;;
66559;SDS011;53413;49.878;8.142;2022-11-25T16:16:50;12.03;;;3.83;;
66559;SDS011;53413;49.878;8.142;2022-11-25T16:19:23;17.15;;;5.68;;
66559;SDS011;53413;49.878;8.142;2022-11-25T16:21:58;14.70;;;5.00;;
66559;SDS011;53413;49.878;8.142;2022-11-25T16:24:34;9.60;;;3.22;;
66559;SDS011;53413;49.878;8.142;2022-11-25T16:27:24;13.48;;;5.50;;
66559;SDS011;53413;49.878;8.142;2022-11-25T16:29:55;10.20;;;3.53;;
66559;SDS011;53413;49.878;8.142;2022-11-25T16:32:32;11.63;;;2.92;;
66559;SDS011;53413;49.878;8.142;2022-11-25T16:37:40;12.23;;;3.38;;
66559;SDS011;53413;49.878;8.142;2022-11-25T16:40:06;12.30;;;3.37;;
66559;SDS011;53413;49.878;8.142;2022-11-25T16:42:33;11.48;;;3.30;;
66559;SDS011;53413;49.878;8.142;2022-11-25T16:44:58;9.87;;;2.70;;
66559;SDS011;53413;49.878;8.142;2022-11-25T16:47:24;10.35;;;2.50;;
66559;SDS011;53413;49.878;8.142;2022-11-25T16:49:50;8.10;;;1.90;;
66559;SDS011;53413;49.878;8.142;2022-11-25T16:52:17;10.83;;;2.30;;
66559;SDS011;53413;49.878;8.142;2022-11-25T16:54:42;9.85;;;2.50;;
66559;SDS011;53413;49.878;8.142;2022-11-25T16:57:11;9.00;;;3.87;;
66559;SDS011;53413;49.878;8.142;2022-11-25T16:59:41;8.45;;;2.90;;
66559;SDS011;53413;49.878;8.142;2022-11-25T17:02:18;7.77;;;2.50;;
66559;SDS011;53413;49.878;8.142;2022-11-25T17:04:45;10.27;;;3.00;;